If you wish to contribute or participate in the discussions about articles you are invited to join SKYbrary as a registered user

Monterey Regional Airport

From SKYbrary Wiki
KMRY
Airport
ICAO: KMRY
Summary
Name Monterey Regional Airport
Region North America
Territory United States US.gif
Location Monterey, California
Serving Monterey, California
Coordinates 36° 35' 17.7684", -121° 50' 56.7928"
Runways
Designator Length Width Surface ROPS
10L/28R 1071 m3,513.78 ft 18 m59.055 ft ASP yes/yes
10R/28L 2321 m7,614.829 ft 46 m150.919 ft ASP yes/yes
METAR
Observation KMRY 241654Z 00000KT 10SM CLR 21/05 A2996 RMK AO2 SLP157 T02060050
Station Monterey, Monterey Peninsula Airport
Date/Time 24 September 2017 16:54:00
Wind direction
Wind speed 00 kts
Lowest cloud amount n/a
Temperature 20.6°C
Dew point 5°C
Humidity 36%
QNH hPa
Weather condition n/a

LOS
Tag(s) Parallel Runway Operation
WX
Tag(s) Fog
EMAS equipped
Rwy(s) 10R, 28L

Monterey Regional Airport

ICAO: KMRY IATA: MRY

Description

Monterey Regional Airport is a regional airport located 5 km2.7 nm
5,000 m
16,404.199 ft
southeast of the central business district of Monterey, a city in Monterey County, California.

Climatology

Dry-summer subtropical ”Mediterranean" climate (Köppen climate classification Csb) - characterized by warm, dry summers and mild winters.

Maps

Terrain

Loading map...

Airport Layout

Loading map...


Accidents & Serious Incidents at or in vicinity of KMRY

None on SKYbrary